createdAt,value
2023-03-26T00:00:29.355Z,10.51
2023-03-26T00:05:32.618Z,10.64
2023-03-26T00:10:36.983Z,10.62
2023-03-26T00:15:41.021Z,10.47
2023-03-26T00:20:45.766Z,10.45
2023-03-26T00:25:52.086Z,10.64
2023-03-26T00:31:03.354Z,10.55
2023-03-26T00:36:11.229Z,10.63
2023-03-26T00:41:25.387Z,10.66
2023-03-26T00:46:31.488Z,10.42
2023-03-26T00:51:35.360Z,10.38
2023-03-26T00:56:39.077Z,10.60
2023-03-26T01:01:42.542Z,10.49
2023-03-26T01:06:45.639Z,10.48
2023-03-26T01:11:50.074Z,10.25
2023-03-26T01:16:55.684Z,10.13
2023-03-26T01:21:59.262Z,10.27
2023-03-26T01:27:27.118Z,10.35
2023-03-26T01:32:44.290Z,10.37
2023-03-26T01:37:59.657Z,10.34
2023-03-26T01:43:30.364Z,10.17
2023-03-26T01:48:42.640Z,10.29
2023-03-26T01:53:48.010Z,10.11
2023-03-26T01:59:08.162Z,10.10
2023-03-26T02:04:43.467Z,10.02
2023-03-26T02:09:50.614Z,9.76
2023-03-26T02:14:53.791Z,9.57
2023-03-26T02:19:57.442Z,9.45
2023-03-26T02:25:00.562Z,9.38
2023-03-26T02:30:06.634Z,9.20
2023-03-26T02:35:13.405Z,9.16
2023-03-26T02:40:17.834Z,8.94
2023-03-26T02:45:22.541Z,8.80
2023-03-26T02:50:57.984Z,8.81
2023-03-26T02:56:12.920Z,8.72
2023-03-26T03:01:26.333Z,8.88
2023-03-26T03:06:31.328Z,8.79
2023-03-26T03:11:36.232Z,8.83
2023-03-26T03:16:39.460Z,8.92
2023-03-26T03:21:45.253Z,9.14
2023-03-26T03:26:48.647Z,9.32
2023-03-26T03:32:09.929Z,9.55
2023-03-26T03:37:20.560Z,9.77
2023-03-26T03:42:29.735Z,10.12
2023-03-26T03:47:36.804Z,10.56
2023-03-26T03:52:40.544Z,11.30
2023-03-26T03:57:44.222Z,11.96
2023-03-26T04:02:54.798Z,12.54
2023-03-26T04:08:01.274Z,13.51
2023-03-26T04:13:04.503Z,14.18
2023-03-26T04:18:26.723Z,14.71
2023-03-26T04:23:34.679Z,15.43
2023-03-26T04:29:17.309Z,16.22
2023-03-26T04:34:24.568Z,16.72
2023-03-26T04:39:47.591Z,17.29
2023-03-26T04:45:23.124Z,17.72
2023-03-26T04:50:32.280Z,18.09
2023-03-26T04:56:01.826Z,18.25
2023-03-26T05:01:31.169Z,18.68
2023-03-26T05:06:34.728Z,19.63
2023-03-26T05:11:45.228Z,19.50
2023-03-26T05:16:50.673Z,19.85
2023-03-26T05:21:53.790Z,20.14
2023-03-26T05:26:56.978Z,19.96
2023-03-26T05:32:01.400Z,20.27
2023-03-26T05:37:07.101Z,20.20
2023-03-26T05:42:27.554Z,20.43
2023-03-26T05:47:43.357Z,20.64
2023-03-26T05:52:46.791Z,21.11
2023-03-26T05:58:08.096Z,21.00
2023-03-26T06:03:13.197Z,20.55
2023-03-26T06:08:41.504Z,20.61
2023-03-26T06:13:44.873Z,20.59
2023-03-26T06:18:48.032Z,20.33
2023-03-26T06:24:05.863Z,20.21
2023-03-26T06:29:24.953Z,20.22
2023-03-26T06:34:33.686Z,20.17
2023-03-26T06:39:36.778Z,20.23
2023-03-26T06:45:02.788Z,20.40
2023-03-26T06:50:24.028Z,20.70
2023-03-26T06:55:45.343Z,21.01
2023-03-26T07:00:57.314Z,20.96
2023-03-26T07:06:19.025Z,20.96
2023-03-26T07:11:40.484Z,20.91
2023-03-26T07:17:06.087Z,21.22
2023-03-26T07:22:44.651Z,21.23
2023-03-26T07:28:08.840Z,21.15
2023-03-26T07:34:14.567Z,21.24
2023-03-26T07:39:55.282Z,21.43
2023-03-26T07:45:22.107Z,21.35
2023-03-26T07:50:44.092Z,21.97
2023-03-26T07:56:20.709Z,22.74
2023-03-26T08:02:00.736Z,22.59
2023-03-26T08:07:42.693Z,22.69
2023-03-26T08:13:11.442Z,22.57
2023-03-26T08:18:28.068Z,22.83
2023-03-26T08:23:58.032Z,22.42
2023-03-26T08:29:17.958Z,22.37
2023-03-26T08:34:21.191Z,22.40
2023-03-26T08:39:24.207Z,21.82
2023-03-26T08:44:49.205Z,21.85
2023-03-26T08:50:16.591Z,21.75
2023-03-26T08:55:36.826Z,21.51
2023-03-26T09:01:22.487Z,21.42
2023-03-26T09:06:50.038Z,21.50
2023-03-26T09:12:02.477Z,21.35
2023-03-26T09:17:50.930Z,21.33
2023-03-26T09:23:28.865Z,21.21
2023-03-26T09:28:53.401Z,21.04
2023-03-26T09:34:09.881Z,21.08
2023-03-26T09:39:24.219Z,21.15
2023-03-26T09:44:27.296Z,21.31
2023-03-26T09:49:46.883Z,21.56
2023-03-26T09:55:24.637Z,21.69
2023-03-26T10:00:54.749Z,21.67
2023-03-26T10:06:03.111Z,21.52
2023-03-26T10:11:17.460Z,21.60
2023-03-26T10:16:37.452Z,21.25
2023-03-26T10:22:00.157Z,21.36
2023-03-26T10:27:18.695Z,21.40
2023-03-26T10:32:45.693Z,21.17
2023-03-26T10:38:19.219Z,21.23
2023-03-26T10:44:07.926Z,21.15
2023-03-26T10:49:33.639Z,21.03
2023-03-26T10:54:48.836Z,20.87
2023-03-26T10:59:58.176Z,21.04
2023-03-26T11:05:06.854Z,21.08
2023-03-26T11:10:34.076Z,21.01
2023-03-26T11:15:44.157Z,21.02
2023-03-26T11:21:19.527Z,20.95
2023-03-26T11:26:50.847Z,21.31
2023-03-26T11:32:14.425Z,21.27
2023-03-26T11:37:30.965Z,21.29
2023-03-26T11:42:36.857Z,21.51
2023-03-26T11:47:46.888Z,21.57
2023-03-26T11:52:50.345Z,21.50
2023-03-26T11:57:57.718Z,21.26
2023-03-26T12:03:01.165Z,21.32
2023-03-26T12:08:22.738Z,21.22
2023-03-26T12:13:39.526Z,21.03
2023-03-26T12:18:44.322Z,20.89
2023-03-26T12:24:05.624Z,20.89
2023-03-26T12:29:16.927Z,20.65
2023-03-26T12:34:22.126Z,20.79
2023-03-26T12:40:06.919Z,20.66
2023-03-26T12:45:00.346Z,20.72
2023-03-26T12:50:07.735Z,20.61
2023-03-26T12:55:30.344Z,20.66
2023-03-26T13:00:51.676Z,20.55
2023-03-26T13:06:14.577Z,20.64
2023-03-26T13:11:37.013Z,20.63
2023-03-26T13:16:52.680Z,20.60
2023-03-26T13:22:14.208Z,20.57
2023-03-26T13:27:40.281Z,20.36
2023-03-26T13:33:04.559Z,20.33
2023-03-26T13:38:31.547Z,20.20
2023-03-26T13:43:43.282Z,20.27
2023-03-26T13:48:59.235Z,20.33
2023-03-26T13:54:34.525Z,20.27
2023-03-26T13:59:47.508Z,20.19
2023-03-26T14:04:58.136Z,20.11
2023-03-26T14:10:08.010Z,19.99
2023-03-26T14:15:39.014Z,19.79
2023-03-26T14:21:15.780Z,19.72
2023-03-26T14:26:43.659Z,19.63
2023-03-26T14:31:52.002Z,19.53
2023-03-26T14:37:28.460Z,19.40
2023-03-26T14:43:08.664Z,19.30
2023-03-26T14:48:23.867Z,19.25
2023-03-26T14:53:38.329Z,19.28
2023-03-26T14:59:08.746Z,19.15
2023-03-26T15:04:14.706Z,19.03
2023-03-26T15:09:39.788Z,18.88
2023-03-26T15:14:51.922Z,18.80
2023-03-26T15:20:36.370Z,18.79
2023-03-26T15:26:04.124Z,18.69
2023-03-26T15:31:37.534Z,18.58
2023-03-26T15:36:53.491Z,18.42
2023-03-26T15:42:17.510Z,18.36
2023-03-26T15:47:50.287Z,18.13
2023-03-26T15:53:09.932Z,18.23
2023-03-26T15:58:13.421Z,18.08
2023-03-26T16:03:34.580Z,17.92
2023-03-26T16:09:17.935Z,17.82
2023-03-26T16:14:36.293Z,17.68
2023-03-26T16:19:59.981Z,17.51
2023-03-26T16:25:27.879Z,17.33
2023-03-26T16:30:33.223Z,17.23
2023-03-26T16:35:42.212Z,17.03
2023-03-26T16:41:06.617Z,16.89
2023-03-26T16:46:29.964Z,16.84
2023-03-26T16:51:54.554Z,16.79
2023-03-26T16:57:09.671Z,16.63
2023-03-26T17:02:15.428Z,16.60
2023-03-26T17:07:42.601Z,16.53
2023-03-26T17:13:00.913Z,16.41
2023-03-26T17:18:27.005Z,16.37
2023-03-26T17:23:42.067Z,16.30
2023-03-26T17:29:06.115Z,16.24
2023-03-26T17:34:39.647Z,16.15
2023-03-26T17:39:51.511Z,16.06
2023-03-26T17:45:01.714Z,15.90
2023-03-26T17:50:41.830Z,15.68
2023-03-26T17:55:46.387Z,15.49
2023-03-26T18:01:04.040Z,15.39
2023-03-26T18:06:18.469Z,15.44
2023-03-26T18:11:56.624Z,15.35
2023-03-26T18:17:01.809Z,15.36
2023-03-26T18:22:07.673Z,15.35
2023-03-26T18:27:17.178Z,15.47
2023-03-26T18:32:22.883Z,15.48
2023-03-26T18:37:32.057Z,15.31
2023-03-26T18:42:35.210Z,15.37
2023-03-26T18:47:38.824Z,15.37
2023-03-26T18:52:42.230Z,15.28
2023-03-26T18:57:45.903Z,15.13
2023-03-26T19:02:52.004Z,15.00
2023-03-26T19:07:56.386Z,15.01
2023-03-26T19:13:02.325Z,14.99
2023-03-26T19:18:14.356Z,14.95
2023-03-26T19:23:21.497Z,14.77
2023-03-26T19:28:28.379Z,14.64
2023-03-26T19:33:38.066Z,14.82
2023-03-26T19:38:50.355Z,14.63
2023-03-26T19:43:56.160Z,14.69
2023-03-26T19:48:59.614Z,14.43
2023-03-26T19:54:12.227Z,14.47
2023-03-26T19:59:15.957Z,14.42
2023-03-26T20:04:18.993Z,14.45
2023-03-26T20:09:22.234Z,14.38
2023-03-26T20:14:26.713Z,14.18
2023-03-26T20:19:29.961Z,14.04
2023-03-26T20:24:33.394Z,13.80
2023-03-26T20:29:37.075Z,13.68
2023-03-26T20:34:40.269Z,13.53
2023-03-26T20:39:43.353Z,13.43
2023-03-26T20:44:46.537Z,13.32
2023-03-26T20:49:49.603Z,13.10
2023-03-26T20:54:52.606Z,13.07
2023-03-26T20:59:56.007Z,12.97
2023-03-26T21:04:59.064Z,12.71
2023-03-26T21:10:03.422Z,12.76
2023-03-26T21:15:10.562Z,12.65
2023-03-26T21:20:20.587Z,12.46
2023-03-26T21:26:01.726Z,12.48
2023-03-26T21:31:06.532Z,12.36
2023-03-26T21:36:11.096Z,12.19
2023-03-26T21:41:24.845Z,12.32
2023-03-26T21:46:28.178Z,12.07
2023-03-26T21:51:32.374Z,12.14
2023-03-26T21:56:45.836Z,12.18
2023-03-26T22:02:07.997Z,12.13
2023-03-26T22:07:16.164Z,12.14
2023-03-26T22:12:19.229Z,12.26
2023-03-26T22:17:23.300Z,12.22
2023-03-26T22:22:26.584Z,12.25
2023-03-26T22:27:29.594Z,12.25
2023-03-26T22:32:34.822Z,12.00
2023-03-26T22:37:38.095Z,11.94
2023-03-26T22:42:41.989Z,12.01
2023-03-26T22:47:45.217Z,12.06
2023-03-26T22:52:48.343Z,11.87
2023-03-26T22:57:52.686Z,11.82
2023-03-26T23:03:00.954Z,11.82
2023-03-26T23:08:04.341Z,11.66
2023-03-26T23:13:07.806Z,11.65
2023-03-26T23:18:12.118Z,11.66
2023-03-26T23:23:15.170Z,11.54
2023-03-26T23:28:18.565Z,11.54
2023-03-26T23:33:23.615Z,11.71
2023-03-26T23:38:43.382Z,11.69
2023-03-26T23:43:53.776Z,11.53
2023-03-26T23:49:00.337Z,11.53
2023-03-26T23:54:05.389Z,11.45
2023-03-26T23:59:08.689Z,11.34
